sensor_id;sensor_type;location;lat;lon;timestamp;pressure;altitude;pressure_sealevel;temperature;humidity
4528;BME280;62320;51.520;6.818;2023-09-19T00:03:10;100343.69;;;17.07;91.35
4528;BME280;62320;51.520;6.818;2023-09-19T00:13:13;100352.56;;;17.02;90.82
4528;BME280;62320;51.520;6.818;2023-09-19T00:23:17;100359.25;;;16.84;91.27
4528;BME280;62320;51.520;6.818;2023-09-19T00:33:21;100360.41;;;16.76;91.00
4528;BME280;62320;51.520;6.818;2023-09-19T00:43:22;100371.16;;;16.67;91.02
4528;BME280;62320;51.520;6.818;2023-09-19T00:53:25;100378.31;;;16.60;91.12
4528;BME280;62320;51.520;6.818;2023-09-19T01:03:28;100382.06;;;16.50;91.37
4528;BME280;62320;51.520;6.818;2023-09-19T01:13:50;100405.75;;;16.44;91.67
4528;BME280;62320;51.520;6.818;2023-09-19T01:34:19;100408.78;;;16.29;92.17
4528;BME280;62320;51.520;6.818;2023-09-19T01:54:51;100425.63;;;16.19;91.73
4528;BME280;62320;51.520;6.818;2023-09-19T02:04:54;100436.44;;;16.05;91.58
4528;BME280;62320;51.520;6.818;2023-09-19T02:14:56;100447.88;;;16.00;91.67
4528;BME280;62320;51.520;6.818;2023-09-19T02:24:58;100468.22;;;15.87;91.21
4528;BME280;62320;51.520;6.818;2023-09-19T02:35:02;100458.78;;;15.83;90.65
4528;BME280;62320;51.520;6.818;2023-09-19T02:45:06;100478.31;;;15.67;90.98
4528;BME280;62320;51.520;6.818;2023-09-19T02:55:07;100480.13;;;15.63;90.71
4528;BME280;62320;51.520;6.818;2023-09-19T03:05:10;100493.97;;;15.65;90.44
4528;BME280;62320;51.520;6.818;2023-09-19T03:15:13;100494.28;;;15.53;89.86
4528;BME280;62320;51.520;6.818;2023-09-19T03:25:16;100500.53;;;15.46;89.58
4528;BME280;62320;51.520;6.818;2023-09-19T03:35:19;100508.50;;;15.39;89.89
4528;BME280;62320;51.520;6.818;2023-09-19T03:45:20;100503.34;;;15.36;88.81
4528;BME280;62320;51.520;6.818;2023-09-19T03:55:22;100500.09;;;15.28;89.16
4528;BME280;62320;51.520;6.818;2023-09-19T04:05:24;100506.31;;;15.21;89.53
4528;BME280;62320;51.520;6.818;2023-09-19T04:15:25;100498.41;;;15.25;89.62
4528;BME280;62320;51.520;6.818;2023-09-19T04:25:27;100499.31;;;15.23;90.00
4528;BME280;62320;51.520;6.818;2023-09-19T04:35:29;100505.50;;;15.19;90.68
4528;BME280;62320;51.520;6.818;2023-09-19T04:45:32;100509.75;;;15.23;91.31
4528;BME280;62320;51.520;6.818;2023-09-19T04:55:34;100504.69;;;15.15;91.56
4528;BME280;62320;51.520;6.818;2023-09-19T05:05:35;100537.53;;;15.22;91.38
4528;BME280;62320;51.520;6.818;2023-09-19T05:15:39;100561.13;;;15.16;91.03
4528;BME280;62320;51.520;6.818;2023-09-19T05:25:41;100567.25;;;15.14;92.79
4528;BME280;62320;51.520;6.818;2023-09-19T05:35:44;100576.75;;;15.16;91.58
4528;BME280;62320;51.520;6.818;2023-09-19T05:45:48;100597.44;;;15.22;91.85
4528;BME280;62320;51.520;6.818;2023-09-19T05:55:49;100599.94;;;15.27;92.04
4528;BME280;62320;51.520;6.818;2023-09-19T06:05:52;100601.63;;;15.29;91.86
4528;BME280;62320;51.520;6.818;2023-09-19T06:15:58;100591.81;;;15.40;91.68
4528;BME280;62320;51.520;6.818;2023-09-19T06:25:59;100601.34;;;15.44;92.69
4528;BME280;62320;51.520;6.818;2023-09-19T06:36:02;100586.44;;;15.49;91.90
4528;BME280;62320;51.520;6.818;2023-09-19T06:46:05;100596.59;;;15.61;91.03
4528;BME280;62320;51.520;6.818;2023-09-19T06:56:09;100617.44;;;15.61;92.05
4528;BME280;62320;51.520;6.818;2023-09-19T07:06:10;100617.06;;;15.78;91.06
4528;BME280;62320;51.520;6.818;2023-09-19T07:16:12;100622.88;;;15.89;91.65
4528;BME280;62320;51.520;6.818;2023-09-19T07:26:28;100628.56;;;16.05;90.73
4528;BME280;62320;51.520;6.818;2023-09-19T07:36:30;100630.91;;;16.17;91.52
4528;BME280;62320;51.520;6.818;2023-09-19T07:46:31;100640.97;;;16.30;91.60
4528;BME280;62320;51.520;6.818;2023-09-19T07:56:34;100649.34;;;16.43;90.68
4528;BME280;62320;51.520;6.818;2023-09-19T08:06:35;100658.59;;;16.56;90.91
4528;BME280;62320;51.520;6.818;2023-09-19T08:16:39;100657.41;;;16.68;90.84
4528;BME280;62320;51.520;6.818;2023-09-19T08:26:41;100658.69;;;16.85;89.90
4528;BME280;62320;51.520;6.818;2023-09-19T08:36:42;100663.69;;;16.93;89.67
4528;BME280;62320;51.520;6.818;2023-09-19T08:46:47;100673.56;;;17.14;89.38
4528;BME280;62320;51.520;6.818;2023-09-19T08:56:53;100672.16;;;17.32;88.52
4528;BME280;62320;51.520;6.818;2023-09-19T09:06:55;100667.47;;;17.43;86.26
4528;BME280;62320;51.520;6.818;2023-09-19T09:16:57;100665.34;;;17.57;86.68
4528;BME280;62320;51.520;6.818;2023-09-19T09:27:03;100654.47;;;17.70;85.40
4528;BME280;62320;51.520;6.818;2023-09-19T09:37:17;100659.41;;;17.79;85.76
4528;BME280;62320;51.520;6.818;2023-09-19T09:47:41;100661.69;;;17.90;84.68
4528;BME280;62320;51.520;6.818;2023-09-19T09:57:44;100657.44;;;18.14;83.99
4528;BME280;62320;51.520;6.818;2023-09-19T10:07:46;100669.72;;;18.12;83.38
4528;BME280;62320;51.520;6.818;2023-09-19T10:17:54;100652.78;;;18.22;82.42
4528;BME280;62320;51.520;6.818;2023-09-19T10:28:00;100643.09;;;18.25;82.92
4528;BME280;62320;51.520;6.818;2023-09-19T10:38:10;100632.84;;;18.44;80.38
4528;BME280;62320;51.520;6.818;2023-09-19T10:48:12;100614.41;;;18.48;81.58
4528;BME280;62320;51.520;6.818;2023-09-19T10:58:24;100631.41;;;18.62;80.79
4528;BME280;62320;51.520;6.818;2023-09-19T11:08:27;100624.72;;;18.78;79.24
4528;BME280;62320;51.520;6.818;2023-09-19T11:28:43;100627.97;;;19.07;79.19
4528;BME280;62320;51.520;6.818;2023-09-19T11:48:50;100616.63;;;19.30;77.64
4528;BME280;62320;51.520;6.818;2023-09-19T11:58:54;100599.44;;;19.46;73.79
4528;BME280;62320;51.520;6.818;2023-09-19T12:08:57;100594.38;;;19.42;75.63
4528;BME280;62320;51.520;6.818;2023-09-19T12:19:18;100586.06;;;19.52;74.94
4528;BME280;62320;51.520;6.818;2023-09-19T12:29:22;100575.47;;;19.55;75.83
4528;BME280;62320;51.520;6.818;2023-09-19T12:39:24;100576.41;;;19.74;73.86
4528;BME280;62320;51.520;6.818;2023-09-19T12:49:27;100561.78;;;19.69;73.64
4528;BME280;62320;51.520;6.818;2023-09-19T12:59:29;100564.91;;;19.78;72.91
4528;BME280;62320;51.520;6.818;2023-09-19T13:09:32;100567.16;;;19.87;72.17
4528;BME280;62320;51.520;6.818;2023-09-19T13:19:43;100559.88;;;19.94;69.23
4528;BME280;62320;51.520;6.818;2023-09-19T13:29:51;100574.09;;;19.88;72.42
4528;BME280;62320;51.520;6.818;2023-09-19T13:39:52;100574.75;;;19.93;72.25
4528;BME280;62320;51.520;6.818;2023-09-19T13:49:54;100573.50;;;20.02;72.96
4528;BME280;62320;51.520;6.818;2023-09-19T13:59:56;100563.59;;;20.09;73.79
4528;BME280;62320;51.520;6.818;2023-09-19T14:09:57;100561.84;;;20.09;73.27
4528;BME280;62320;51.520;6.818;2023-09-19T14:19:59;100576.94;;;20.04;72.91
4528;BME280;62320;51.520;6.818;2023-09-19T14:30:01;100581.50;;;19.99;72.42
4528;BME280;62320;51.520;6.818;2023-09-19T14:40:02;100576.06;;;20.04;73.93
4528;BME280;62320;51.520;6.818;2023-09-19T14:50:10;100572.66;;;20.02;72.80
4528;BME280;62320;51.520;6.818;2023-09-19T15:00:13;100568.53;;;19.96;74.55
4528;BME280;62320;51.520;6.818;2023-09-19T15:10:15;100568.72;;;19.91;74.24
4528;BME280;62320;51.520;6.818;2023-09-19T15:20:17;100573.56;;;19.80;73.37
4528;BME280;62320;51.520;6.818;2023-09-19T15:30:19;100571.66;;;19.84;73.67
4528;BME280;62320;51.520;6.818;2023-09-19T15:40:20;100561.72;;;19.92;72.56
4528;BME280;62320;51.520;6.818;2023-09-19T15:50:24;100532.78;;;19.93;72.95
4528;BME280;62320;51.520;6.818;2023-09-19T16:00:27;100534.06;;;19.83;73.23
4528;BME280;62320;51.520;6.818;2023-09-19T16:10:28;100543.72;;;19.83;73.17
4528;BME280;62320;51.520;6.818;2023-09-19T16:20:30;100544.75;;;19.79;73.01
4528;BME280;62320;51.520;6.818;2023-09-19T16:30:32;100537.06;;;19.74;73.34
4528;BME280;62320;51.520;6.818;2023-09-19T16:40:35;100544.22;;;19.71;74.69
4528;BME280;62320;51.520;6.818;2023-09-19T16:50:36;100546.16;;;19.66;73.30
4528;BME280;62320;51.520;6.818;2023-09-19T17:00:39;100530.63;;;19.61;73.55
4528;BME280;62320;51.520;6.818;2023-09-19T17:10:41;100528.97;;;19.59;73.75
4528;BME280;62320;51.520;6.818;2023-09-19T17:20:46;100536.13;;;19.55;74.26
4528;BME280;62320;51.520;6.818;2023-09-19T17:30:47;100546.84;;;19.49;73.68
4528;BME280;62320;51.520;6.818;2023-09-19T17:40:50;100547.81;;;19.47;74.42
4528;BME280;62320;51.520;6.818;2023-09-19T17:51:00;100547.28;;;19.39;73.77
4528;BME280;62320;51.520;6.818;2023-09-19T18:01:12;100548.25;;;19.36;75.08
4528;BME280;62320;51.520;6.818;2023-09-19T18:11:16;100557.84;;;19.37;74.66
4528;BME280;62320;51.520;6.818;2023-09-19T18:21:19;100557.97;;;19.33;74.83
4528;BME280;62320;51.520;6.818;2023-09-19T18:31:22;100562.47;;;19.29;75.83
4528;BME280;62320;51.520;6.818;2023-09-19T18:41:24;100556.63;;;19.22;74.96
4528;BME280;62320;51.520;6.818;2023-09-19T18:51:26;100556.72;;;19.19;74.53
4528;BME280;62320;51.520;6.818;2023-09-19T19:01:27;100544.66;;;19.15;75.25
4528;BME280;62320;51.520;6.818;2023-09-19T19:11:29;100553.44;;;19.14;76.15
4528;BME280;62320;51.520;6.818;2023-09-19T19:21:31;100560.72;;;19.06;76.03
4528;BME280;62320;51.520;6.818;2023-09-19T19:31:33;100564.28;;;19.05;76.38
4528;BME280;62320;51.520;6.818;2023-09-19T19:41:37;100556.59;;;19.01;75.59
4528;BME280;62320;51.520;6.818;2023-09-19T19:51:40;100569.75;;;18.99;76.79
4528;BME280;62320;51.520;6.818;2023-09-19T20:01:43;100579.50;;;18.96;76.35
4528;BME280;62320;51.520;6.818;2023-09-19T20:11:44;100577.78;;;18.95;77.24
4528;BME280;62320;51.520;6.818;2023-09-19T20:21:47;100579.72;;;18.90;77.33
4528;BME280;62320;51.520;6.818;2023-09-19T20:31:48;100577.16;;;18.88;77.35
4528;BME280;62320;51.520;6.818;2023-09-19T20:41:52;100578.00;;;18.89;76.77
4528;BME280;62320;51.520;6.818;2023-09-19T20:51:54;100573.66;;;18.88;77.83
4528;BME280;62320;51.520;6.818;2023-09-19T21:01:55;100564.22;;;18.84;77.89
4528;BME280;62320;51.520;6.818;2023-09-19T21:11:57;100565.16;;;18.83;77.95
4528;BME280;62320;51.520;6.818;2023-09-19T21:21:58;100564.38;;;18.79;78.46
4528;BME280;62320;51.520;6.818;2023-09-19T21:32:01;100561.03;;;18.76;78.47
4528;BME280;62320;51.520;6.818;2023-09-19T21:42:03;100554.78;;;18.80;78.75
4528;BME280;62320;51.520;6.818;2023-09-19T21:52:05;100548.66;;;18.79;78.99
4528;BME280;62320;51.520;6.818;2023-09-19T22:02:07;100547.00;;;18.77;79.13
4528;BME280;62320;51.520;6.818;2023-09-19T22:12:08;100543.59;;;18.75;79.41
4528;BME280;62320;51.520;6.818;2023-09-19T22:22:10;100545.66;;;18.67;80.30
4528;BME280;62320;51.520;6.818;2023-09-19T22:32:13;100545.41;;;18.73;79.91
4528;BME280;62320;51.520;6.818;2023-09-19T22:42:14;100541.38;;;18.64;80.16
4528;BME280;62320;51.520;6.818;2023-09-19T22:52:18;100529.88;;;18.68;79.66
4528;BME280;62320;51.520;6.818;2023-09-19T23:02:19;100535.34;;;18.62;80.42
4528;BME280;62320;51.520;6.818;2023-09-19T23:12:25;100536.38;;;18.58;81.10
4528;BME280;62320;51.520;6.818;2023-09-19T23:22:28;100533.88;;;18.55;80.98
4528;BME280;62320;51.520;6.818;2023-09-19T23:32:30;100535.44;;;18.59;81.09
4528;BME280;62320;51.520;6.818;2023-09-19T23:42:31;100532.75;;;18.61;81.57
4528;BME280;62320;51.520;6.818;2023-09-19T23:52:33;100535.63;;;18.55;80.98
